Terminal Aerodrome Forecast
Issued by NWS Jackson, MS

Home | Current Version | Previous Version | Text Only | Print | Product List | Glossary On
Versions: 1 2 3 4 5 6 7 8 9 10 11 12 13 14 15 16 17
809
FTUS44 KMEG 241503 AAA
TAFTUP
TAF AMD
KTUP 241503Z 2415/2512 22006KT P6SM BKN008
     FM241700 21005KT P6SM VCTS BKN040CB
      TEMPO 2418/2420 VRB10G20KT 3SM TSRA OVC030CB
     FM242200 VRB05KT P6SM VCSH BKN050 BKN200
     FM250500 00000KT 6SM BR SCT050 BKN250
      TEMPO 2508/2512 2SM BR SCT004=

USA.gov is the U.S. government's official web portal to all federal, state and local government web resources and services.